createdAt,value
2023-04-01T00:00:01.430Z,10.18
2023-04-01T00:02:04.367Z,10.28
2023-04-01T00:04:06.957Z,10.14
2023-04-01T00:06:09.858Z,10.14
2023-04-01T00:08:12.470Z,10.16
2023-04-01T00:10:17.533Z,10.16
2023-04-01T00:12:20.235Z,10.09
2023-04-01T00:14:22.846Z,10.04
2023-04-01T00:16:26.782Z,10.06
2023-04-01T00:18:29.441Z,10.09
2023-04-01T00:20:32.401Z,10.13
2023-04-01T00:22:35.067Z,10.10
2023-04-01T00:24:37.952Z,10.06
2023-04-01T00:26:41.749Z,10.12
2023-04-01T00:28:44.320Z,10.05
2023-04-01T00:30:47.451Z,9.97
2023-04-01T00:32:54.849Z,10.15
2023-04-01T00:34:57.486Z,10.15
2023-04-01T00:37:00.089Z,10.01
2023-04-01T00:39:02.642Z,10.22
2023-04-01T00:41:06.097Z,10.11
2023-04-01T00:43:14.208Z,10.17
2023-04-01T00:45:31.300Z,10.20
2023-04-01T00:47:34.451Z,10.16
2023-04-01T00:49:40.805Z,10.23
2023-04-01T00:51:45.211Z,10.22
2023-04-01T00:53:51.971Z,10.13
2023-04-01T00:56:01.660Z,9.99
2023-04-01T00:58:10.851Z,9.88
2023-04-01T01:00:16.480Z,9.99
2023-04-01T01:02:19.409Z,10.14
2023-04-01T01:04:26.981Z,10.00
2023-04-01T01:06:41.149Z,10.01
2023-04-01T01:09:08.443Z,9.93
2023-04-01T01:11:14.209Z,9.86
2023-04-01T01:13:21.255Z,10.04
2023-04-01T01:15:30.161Z,9.99
2023-04-01T01:17:45.438Z,10.10
2023-04-01T01:20:12.780Z,10.04
2023-04-01T01:22:48.235Z,9.97
2023-04-01T01:25:03.825Z,10.02
2023-04-01T01:27:10.171Z,9.95
2023-04-01T01:29:31.360Z,9.89
2023-04-01T01:31:39.173Z,9.96
2023-04-01T01:34:01.597Z,10.00
2023-04-01T01:36:08.817Z,9.93
2023-04-01T01:38:16.166Z,9.83
2023-04-01T01:40:19.655Z,9.93
2023-04-01T01:42:24.834Z,9.92
2023-04-01T01:44:30.817Z,9.83
2023-04-01T01:46:33.535Z,9.73
2023-04-01T01:48:37.940Z,9.72
2023-04-01T01:50:42.466Z,9.58
2023-04-01T01:52:46.419Z,9.77
2023-04-01T01:54:50.358Z,9.83
2023-04-01T01:57:05.520Z,9.92
2023-04-01T01:59:13.072Z,9.80
2023-04-01T02:01:18.627Z,9.68
2023-04-01T02:03:23.401Z,9.70
2023-04-01T02:05:30.246Z,9.61
2023-04-01T02:07:37.428Z,9.77
2023-04-01T02:09:42.090Z,9.72
2023-04-01T02:11:50.521Z,9.79
2023-04-01T02:13:57.124Z,9.97
2023-04-01T02:16:05.822Z,9.69
2023-04-01T02:18:09.624Z,9.61
2023-04-01T02:20:17.534Z,9.78
2023-04-01T02:22:23.926Z,9.84
2023-04-01T02:24:30.043Z,9.91
2023-04-01T02:26:34.092Z,9.72
2023-04-01T02:28:41.179Z,9.84
2023-04-01T02:30:46.522Z,9.73
2023-04-01T02:32:50.439Z,9.60
2023-04-01T02:34:53.505Z,9.46
2023-04-01T02:36:57.957Z,9.61
2023-04-01T02:39:03.378Z,9.56
2023-04-01T02:41:07.084Z,9.47
2023-04-01T02:43:11.137Z,9.60
2023-04-01T02:45:15.472Z,9.63
2023-04-01T02:47:18.076Z,9.55
2023-04-01T02:49:20.838Z,9.52
2023-04-01T02:51:23.409Z,9.63
2023-04-01T02:53:26.190Z,9.60
2023-04-01T02:55:28.957Z,9.47
2023-04-01T02:57:31.725Z,9.44
2023-04-01T02:59:35.693Z,9.33
2023-04-01T03:01:38.330Z,9.38
2023-04-01T03:03:40.962Z,9.33
2023-04-01T03:05:43.600Z,9.33
2023-04-01T03:07:46.393Z,9.23
2023-04-01T03:09:49.053Z,9.30
2023-04-01T03:11:51.652Z,9.25
2023-04-01T03:13:54.252Z,9.11
2023-04-01T03:15:58.220Z,9.14
2023-04-01T03:18:00.867Z,9.34
2023-04-01T03:20:05.859Z,9.27
2023-04-01T03:22:08.481Z,9.24
2023-04-01T03:24:11.166Z,9.23
2023-04-01T03:26:14.600Z,9.20
2023-04-01T03:28:17.230Z,9.19
2023-04-01T03:30:19.987Z,8.94
2023-04-01T03:32:24.015Z,9.08
2023-04-01T03:34:26.763Z,9.04
2023-04-01T03:36:29.427Z,8.96
2023-04-01T03:38:32.035Z,8.78
2023-04-01T03:40:38.177Z,8.99
2023-04-01T03:42:40.949Z,8.87
2023-04-01T03:44:43.614Z,8.74
2023-04-01T03:46:46.229Z,8.84
2023-04-01T03:48:50.259Z,8.82
2023-04-01T03:50:53.122Z,8.93
2023-04-01T03:52:55.704Z,8.88
2023-04-01T03:54:58.328Z,8.79
2023-04-01T03:57:01.007Z,8.85
2023-04-01T03:59:05.773Z,8.71
2023-04-01T04:01:16.082Z,8.65
2023-04-01T04:03:18.788Z,8.72
2023-04-01T04:05:22.788Z,8.71
2023-04-01T04:07:25.440Z,8.80
2023-04-01T04:09:28.003Z,8.69
2023-04-01T04:11:33.279Z,8.89
2023-04-01T04:13:36.835Z,8.81
2023-04-01T04:15:40.415Z,8.91
2023-04-01T04:17:43.212Z,8.92
2023-04-01T04:19:45.989Z,9.09
2023-04-01T04:21:49.889Z,9.10
2023-04-01T04:23:52.836Z,9.01
2023-04-01T04:25:57.077Z,9.17
2023-04-01T04:27:59.618Z,8.90
2023-04-01T04:30:02.203Z,8.93
2023-04-01T04:32:04.890Z,8.78
2023-04-01T04:34:07.635Z,9.06
2023-04-01T04:36:10.575Z,8.97
2023-04-01T04:38:14.475Z,9.00
2023-04-01T04:40:17.147Z,8.87
2023-04-01T04:42:19.705Z,9.06
2023-04-01T04:44:22.293Z,9.00
2023-04-01T04:46:25.016Z,8.97
2023-04-01T04:48:27.614Z,8.91
2023-04-01T04:50:30.176Z,8.93
2023-04-01T04:52:32.709Z,9.00
2023-04-01T04:54:36.729Z,9.11
2023-04-01T04:56:39.326Z,9.16
2023-04-01T04:58:41.933Z,9.18
2023-04-01T05:00:44.741Z,9.13
2023-04-01T05:02:47.359Z,9.18
2023-04-01T05:04:49.986Z,9.06
2023-04-01T05:06:52.825Z,9.07
2023-04-01T05:08:55.377Z,9.08
2023-04-01T05:10:59.256Z,9.10
2023-04-01T05:13:01.834Z,9.19
2023-04-01T05:15:05.130Z,9.12
2023-04-01T05:17:11.076Z,9.09
2023-04-01T05:19:13.637Z,8.98
2023-04-01T05:21:17.171Z,9.03
2023-04-01T05:23:21.946Z,9.08
2023-04-01T05:25:24.497Z,9.07
2023-04-01T05:27:28.454Z,9.34
2023-04-01T05:29:31.009Z,9.40
2023-04-01T05:31:33.649Z,9.18
2023-04-01T05:33:37.072Z,9.25
2023-04-01T05:35:40.114Z,9.29
2023-04-01T05:37:42.768Z,9.32
2023-04-01T05:39:45.408Z,9.14
2023-04-01T05:41:47.974Z,9.01
2023-04-01T05:43:51.990Z,9.14
2023-04-01T05:45:54.548Z,9.29
2023-04-01T05:47:57.228Z,9.21
2023-04-01T05:49:59.816Z,9.41
2023-04-01T05:52:02.381Z,9.32
2023-04-01T05:54:06.277Z,9.32
2023-04-01T05:56:10.353Z,9.53
2023-04-01T05:58:12.935Z,9.56
2023-04-01T06:00:18.328Z,9.43
2023-04-01T06:02:21.009Z,9.53
2023-04-01T06:04:23.730Z,9.40
2023-04-01T06:06:27.950Z,9.26
2023-04-01T06:08:33.005Z,9.35
2023-04-01T06:10:45.911Z,9.46
2023-04-01T06:13:00.293Z,9.40
2023-04-01T06:15:31.564Z,9.50
2023-04-01T06:17:47.837Z,9.47
2023-04-01T06:19:57.642Z,9.43
2023-04-01T06:22:20.139Z,9.47
2023-04-01T06:24:42.689Z,9.65
2023-04-01T06:26:53.901Z,9.59
2023-04-01T06:29:36.865Z,9.46
2023-04-01T06:31:59.704Z,9.43
2023-04-01T06:34:22.258Z,9.61
2023-04-01T06:36:56.219Z,9.67
2023-04-01T06:39:14.666Z,9.65
2023-04-01T06:41:38.168Z,9.64
2023-04-01T06:43:51.270Z,9.70
2023-04-01T06:46:02.972Z,9.72
2023-04-01T06:48:18.913Z,9.65
2023-04-01T06:50:26.919Z,9.79
2023-04-01T06:52:37.386Z,9.73
2023-04-01T06:54:42.611Z,9.84
2023-04-01T06:56:50.930Z,9.63
2023-04-01T06:58:56.500Z,9.72
2023-04-01T07:01:03.001Z,9.73
2023-04-01T07:03:20.863Z,9.86
2023-04-01T07:05:25.081Z,9.71
2023-04-01T07:07:35.289Z,9.75
2023-04-01T07:09:42.095Z,9.75
2023-04-01T07:11:45.169Z,9.62
2023-04-01T07:13:53.210Z,9.81
2023-04-01T07:16:07.466Z,9.75
2023-04-01T07:18:18.267Z,9.88
2023-04-01T07:20:27.334Z,9.89
2023-04-01T07:22:34.845Z,9.85
2023-04-01T07:24:41.244Z,9.94
2023-04-01T07:26:44.532Z,10.05
2023-04-01T07:28:47.285Z,10.00
2023-04-01T07:31:02.752Z,9.99
2023-04-01T07:33:11.252Z,9.92
2023-04-01T07:35:31.171Z,9.90
2023-04-01T07:37:43.680Z,9.97
2023-04-01T07:39:56.586Z,10.05
2023-04-01T07:42:08.356Z,10.10
2023-04-01T07:44:23.206Z,9.87
2023-04-01T07:46:45.858Z,9.97
2023-04-01T07:48:57.101Z,9.99
2023-04-01T07:51:04.548Z,10.10
2023-04-01T07:53:15.692Z,10.05
2023-04-01T07:55:23.400Z,10.11
2023-04-01T07:57:32.666Z,10.16
2023-04-01T07:59:46.418Z,10.17
2023-04-01T08:01:57.083Z,10.07
2023-04-01T08:04:19.568Z,10.12
2023-04-01T08:06:30.635Z,10.23
2023-04-01T08:08:43.856Z,10.16
2023-04-01T08:10:52.332Z,10.12
2023-04-01T08:13:04.259Z,10.15
2023-04-01T08:15:17.433Z,10.06
2023-04-01T08:17:30.152Z,10.18
2023-04-01T08:19:45.291Z,10.28
2023-04-01T08:21:53.405Z,10.19
2023-04-01T08:23:59.260Z,10.28
2023-04-01T08:26:07.232Z,10.15
2023-04-01T08:28:17.197Z,10.23
2023-04-01T08:30:21.881Z,10.18
2023-04-01T08:32:30.516Z,10.14
2023-04-01T08:34:38.535Z,10.06
2023-04-01T08:36:46.077Z,10.03
2023-04-01T08:38:55.407Z,10.24
2023-04-01T08:41:17.961Z,10.05
2023-04-01T08:43:32.966Z,9.86
2023-04-01T08:45:49.692Z,10.06
2023-04-01T08:48:10.712Z,10.02
2023-04-01T08:50:39.945Z,10.11
2023-04-01T08:52:49.632Z,10.25
2023-04-01T08:55:22.211Z,10.31
2023-04-01T08:57:42.786Z,10.34
2023-04-01T08:59:56.134Z,10.30
2023-04-01T09:02:22.110Z,10.31
2023-04-01T09:04:39.390Z,10.29
2023-04-01T09:06:54.221Z,10.19
2023-04-01T09:09:22.158Z,10.11
2023-04-01T09:11:41.947Z,10.11
2023-04-01T09:14:02.025Z,10.22
2023-04-01T09:16:22.202Z,9.99
2023-04-01T09:18:53.714Z,10.03
2023-04-01T09:21:14.182Z,10.13
2023-04-01T09:23:39.850Z,10.01
2023-04-01T09:26:01.791Z,9.90
2023-04-01T09:28:12.640Z,10.03
2023-04-01T09:30:44.037Z,10.03
2023-04-01T09:33:10.499Z,9.96
2023-04-01T09:35:40.772Z,10.15
2023-04-01T09:37:54.367Z,10.04
2023-04-01T09:40:20.144Z,10.15
2023-04-01T09:42:44.627Z,10.27
2023-04-01T09:44:56.856Z,10.14
2023-04-01T09:47:12.855Z,10.16
2023-04-01T09:49:44.356Z,10.11
2023-04-01T09:51:58.861Z,10.08
2023-04-01T09:54:13.972Z,10.12
2023-04-01T09:57:01.722Z,10.05
2023-04-01T09:59:17.358Z,10.19
2023-04-01T10:01:59.502Z,10.09
2023-04-01T10:04:25.733Z,9.94
2023-04-01T10:06:59.349Z,10.03
2023-04-01T10:09:40.628Z,10.22
2023-04-01T10:12:02.496Z,10.11
2023-04-01T10:14:24.322Z,10.14
2023-04-01T10:17:19.122Z,10.21
2023-04-01T10:20:09.151Z,10.25
2023-04-01T10:22:54.544Z,10.09
2023-04-01T10:25:37.382Z,10.08
2023-04-01T10:28:12.242Z,9.99
2023-04-01T10:30:47.249Z,9.95
2023-04-01T10:33:21.203Z,9.93
2023-04-01T10:36:08.714Z,9.72
2023-04-01T10:38:58.921Z,9.84
2023-04-01T10:41:26.275Z,9.97
2023-04-01T10:44:07.804Z,9.73
2023-04-01T10:46:36.183Z,9.87
2023-04-01T10:49:20.366Z,9.78
2023-04-01T10:51:40.072Z,9.68
2023-04-01T10:54:16.735Z,9.86
2023-04-01T10:56:41.672Z,9.94
2023-04-01T10:59:29.890Z,9.87
2023-04-01T11:02:11.564Z,9.69
2023-04-01T11:04:52.640Z,9.81
2023-04-01T11:07:50.493Z,10.06
2023-04-01T11:10:42.551Z,10.16
2023-04-01T11:13:11.301Z,10.12
2023-04-01T11:15:46.027Z,10.01
2023-04-01T11:18:39.730Z,10.18
2023-04-01T11:21:21.447Z,9.91
2023-04-01T11:24:04.575Z,10.12
2023-04-01T11:26:13.859Z,10.16
2023-04-01T11:28:50.258Z,10.15
2023-04-01T11:31:21.987Z,10.25
2023-04-01T11:33:32.065Z,10.29
2023-04-01T11:36:01.342Z,10.25
2023-04-01T11:38:19.475Z,10.27
2023-04-01T11:40:30.114Z,10.14
2023-04-01T11:42:43.171Z,10.11
2023-04-01T11:44:53.348Z,10.08
2023-04-01T11:47:27.652Z,10.17
2023-04-01T11:49:46.490Z,10.25
2023-04-01T11:52:11.345Z,10.08
2023-04-01T11:54:26.563Z,10.22
2023-04-01T11:56:58.572Z,10.42
2023-04-01T11:59:19.770Z,10.50
2023-04-01T12:01:29.325Z,10.52
2023-04-01T12:03:59.982Z,10.55
2023-04-01T12:06:13.472Z,10.54
2023-04-01T12:08:30.361Z,10.58
2023-04-01T12:10:41.856Z,10.59
2023-04-01T12:13:00.694Z,10.55
2023-04-01T12:15:17.522Z,10.53
2023-04-01T12:17:35.405Z,10.40
2023-04-01T12:19:50.428Z,10.25
2023-04-01T12:22:06.713Z,10.23
2023-04-01T12:24:47.540Z,10.46
2023-04-01T12:27:04.302Z,10.50
2023-04-01T12:29:23.968Z,10.44
2023-04-01T12:31:37.834Z,10.57
2023-04-01T12:33:53.913Z,10.64
2023-04-01T12:36:11.955Z,10.68
2023-04-01T12:38:26.571Z,10.68
2023-04-01T12:40:49.792Z,10.65
2023-04-01T12:43:04.630Z,10.63
2023-04-01T12:45:29.403Z,10.66
2023-04-01T12:47:57.733Z,10.55
2023-04-01T12:50:28.777Z,10.75
2023-04-01T12:52:46.692Z,10.72
2023-04-01T12:55:34.036Z,10.65
2023-04-01T12:57:55.657Z,10.54
2023-04-01T13:00:15.378Z,10.72
2023-04-01T13:02:30.017Z,10.79
2023-04-01T13:04:46.789Z,10.83
2023-04-01T13:07:01.281Z,10.85
2023-04-01T13:09:25.168Z,10.68
2023-04-01T13:11:41.492Z,10.74
2023-04-01T13:14:30.869Z,10.76
2023-04-01T13:16:39.863Z,10.87
2023-04-01T13:18:56.988Z,10.76
2023-04-01T13:21:08.169Z,10.83
2023-04-01T13:23:25.035Z,10.95
2023-04-01T13:25:38.401Z,10.74
2023-04-01T13:27:45.703Z,11.03
2023-04-01T13:30:09.775Z,11.11
2023-04-01T13:32:33.363Z,11.14
2023-04-01T13:35:01.938Z,11.35
2023-04-01T13:37:31.406Z,11.50
2023-04-01T13:39:53.365Z,11.46
2023-04-01T13:42:19.481Z,11.41
2023-04-01T13:44:31.599Z,11.23
2023-04-01T13:46:51.180Z,11.30
2023-04-01T13:49:17.538Z,11.45
2023-04-01T13:51:45.469Z,11.37
2023-04-01T13:54:33.617Z,11.30
2023-04-01T13:56:43.079Z,11.39
2023-04-01T13:59:18.948Z,11.34
2023-04-01T14:01:33.579Z,11.24
2023-04-01T14:03:50.423Z,11.26
2023-04-01T14:06:04.478Z,11.22
2023-04-01T14:08:09.485Z,11.24
2023-04-01T14:10:30.330Z,11.23
2023-04-01T14:12:41.048Z,11.18
2023-04-01T14:15:00.379Z,11.26
2023-04-01T14:17:18.536Z,11.19
2023-04-01T14:19:33.779Z,11.18
2023-04-01T14:21:44.463Z,11.27
2023-04-01T14:24:05.356Z,11.27
2023-04-01T14:26:37.470Z,11.31
2023-04-01T14:28:47.124Z,11.48
2023-04-01T14:31:06.617Z,11.43
2023-04-01T14:33:25.738Z,11.30
2023-04-01T14:35:39.105Z,11.32
2023-04-01T14:37:57.747Z,11.22
2023-04-01T14:40:24.076Z,11.29
2023-04-01T14:43:01.114Z,11.26
2023-04-01T14:45:47.464Z,11.35
2023-04-01T14:47:54.881Z,11.25
2023-04-01T14:50:08.586Z,11.12
2023-04-01T14:52:17.418Z,10.90
2023-04-01T14:54:24.513Z,10.92
2023-04-01T14:56:42.881Z,11.09
2023-04-01T14:58:47.436Z,11.24
2023-04-01T15:00:59.080Z,11.24
2023-04-01T15:03:11.728Z,11.21
2023-04-01T15:05:28.152Z,11.33
2023-04-01T15:08:02.948Z,11.17
2023-04-01T15:10:20.443Z,11.12
2023-04-01T15:12:31.550Z,11.10
2023-04-01T15:15:16.413Z,11.14
2023-04-01T15:17:31.019Z,11.24
2023-04-01T15:19:43.964Z,11.21
2023-04-01T15:21:59.249Z,11.26
2023-04-01T15:24:09.658Z,11.22
2023-04-01T15:26:23.904Z,11.13
2023-04-01T15:28:34.383Z,11.10
2023-04-01T15:30:46.793Z,11.14
2023-04-01T15:33:03.643Z,11.16
2023-04-01T15:35:23.401Z,11.18
2023-04-01T15:37:37.125Z,11.15
2023-04-01T15:39:53.323Z,11.29
2023-04-01T15:42:14.797Z,11.24
2023-04-01T15:44:46.250Z,11.14
2023-04-01T15:46:50.446Z,11.26
2023-04-01T15:49:04.211Z,11.23
2023-04-01T15:51:28.296Z,11.21
2023-04-01T15:53:58.758Z,11.10
2023-04-01T15:56:16.211Z,11.21
2023-04-01T15:58:38.078Z,11.19
2023-04-01T16:00:52.143Z,11.06
2023-04-01T16:03:16.710Z,11.09
2023-04-01T16:05:39.656Z,11.15
2023-04-01T16:07:54.334Z,11.12
2023-04-01T16:10:19.437Z,10.98
2023-04-01T16:12:37.009Z,11.01
2023-04-01T16:14:52.079Z,11.09
2023-04-01T16:17:07.952Z,10.91
2023-04-01T16:19:29.925Z,10.88
2023-04-01T16:21:38.133Z,10.83
2023-04-01T16:23:48.911Z,10.94
2023-04-01T16:25:57.217Z,10.94
2023-04-01T16:28:15.681Z,10.79
2023-04-01T16:30:36.825Z,10.89
2023-04-01T16:32:46.154Z,10.79
2023-04-01T16:34:58.471Z,10.73
2023-04-01T16:37:09.175Z,10.80
2023-04-01T16:39:32.204Z,10.91
2023-04-01T16:41:38.972Z,11.06
2023-04-01T16:43:48.811Z,11.12
2023-04-01T16:46:08.403Z,10.95
2023-04-01T16:48:16.974Z,10.78
2023-04-01T16:50:24.178Z,10.94
2023-04-01T16:52:42.424Z,10.86
2023-04-01T16:54:53.032Z,11.06
2023-04-01T16:56:57.913Z,11.04
2023-04-01T16:59:10.819Z,11.12
2023-04-01T17:01:18.157Z,11.05
2023-04-01T17:03:28.058Z,10.98
2023-04-01T17:05:44.245Z,11.06
2023-04-01T17:07:51.028Z,11.09
2023-04-01T17:10:07.907Z,10.99
2023-04-01T17:12:18.661Z,10.98
2023-04-01T17:14:29.666Z,10.96
2023-04-01T17:16:52.592Z,10.89
2023-04-01T17:19:04.287Z,10.86
2023-04-01T17:21:12.393Z,10.83
2023-04-01T17:23:23.593Z,10.98
2023-04-01T17:25:40.327Z,10.80
2023-04-01T17:27:49.469Z,10.68
2023-04-01T17:30:07.568Z,10.59
2023-04-01T17:32:18.776Z,10.77
2023-04-01T17:34:57.339Z,10.61
2023-04-01T17:37:17.041Z,10.59
2023-04-01T17:39:31.642Z,10.69
2023-04-01T17:41:44.732Z,10.90
2023-04-01T17:43:56.738Z,10.96
2023-04-01T17:46:04.100Z,11.02
2023-04-01T17:48:20.598Z,11.10
2023-04-01T17:50:27.311Z,11.03
2023-04-01T17:52:34.221Z,10.99
2023-04-01T17:54:43.477Z,11.03
2023-04-01T17:57:03.870Z,10.97
2023-04-01T17:59:17.958Z,10.81
2023-04-01T18:01:38.588Z,10.89
2023-04-01T18:03:59.800Z,10.87
2023-04-01T18:06:06.179Z,10.90
2023-04-01T18:08:17.295Z,10.77
2023-04-01T18:10:30.937Z,10.77
2023-04-01T18:12:46.783Z,10.85
2023-04-01T18:15:14.904Z,10.91
2023-04-01T18:17:26.553Z,10.94
2023-04-01T18:19:37.937Z,10.79
2023-04-01T18:21:47.623Z,10.86
2023-04-01T18:24:02.421Z,10.99
2023-04-01T18:26:10.582Z,10.94
2023-04-01T18:28:34.694Z,10.78
2023-04-01T18:30:38.184Z,10.73
2023-04-01T18:32:49.794Z,10.67
2023-04-01T18:34:59.841Z,10.63
2023-04-01T18:37:18.906Z,10.63
2023-04-01T18:39:32.381Z,10.84
2023-04-01T18:41:42.767Z,10.94
2023-04-01T18:44:01.016Z,10.88
2023-04-01T18:46:10.377Z,10.93
2023-04-01T18:48:39.470Z,10.91
2023-04-01T18:50:49.399Z,10.85
2023-04-01T18:52:57.123Z,10.82
2023-04-01T18:55:36.882Z,10.79
2023-04-01T18:57:48.432Z,10.66
2023-04-01T18:59:57.226Z,10.45
2023-04-01T19:02:11.167Z,10.39
2023-04-01T19:04:23.059Z,10.31
2023-04-01T19:06:29.377Z,10.35
2023-04-01T19:08:34.942Z,10.25
2023-04-01T19:10:46.193Z,10.19
2023-04-01T19:13:02.024Z,10.21
2023-04-01T19:15:17.770Z,10.23
2023-04-01T19:17:32.137Z,10.35
2023-04-01T19:19:56.569Z,10.22
2023-04-01T19:22:05.245Z,10.07
2023-04-01T19:24:44.502Z,9.97
2023-04-01T19:26:51.090Z,10.10
2023-04-01T19:28:58.187Z,10.09
2023-04-01T19:31:09.947Z,10.16
2023-04-01T19:33:21.296Z,10.16
2023-04-01T19:35:37.772Z,10.14
2023-04-01T19:37:42.625Z,10.05
2023-04-01T19:39:53.051Z,9.91
2023-04-01T19:42:03.906Z,9.79
2023-04-01T19:44:21.445Z,9.72
2023-04-01T19:46:32.921Z,9.68
2023-04-01T19:48:51.417Z,9.64
2023-04-01T19:50:59.780Z,9.61
2023-04-01T19:53:13.602Z,9.57
2023-04-01T19:55:30.869Z,9.60
2023-04-01T19:57:44.832Z,9.57
2023-04-01T19:59:52.979Z,9.52
2023-04-01T20:02:03.613Z,9.49
2023-04-01T20:04:10.616Z,9.44
2023-04-01T20:06:22.610Z,9.42
2023-04-01T20:08:31.054Z,9.40
2023-04-01T20:10:39.979Z,9.38
2023-04-01T20:12:51.416Z,9.35
2023-04-01T20:14:57.264Z,9.35
2023-04-01T20:17:16.162Z,9.32
2023-04-01T20:19:29.858Z,9.37
2023-04-01T20:21:38.123Z,9.29
2023-04-01T20:23:44.822Z,9.24
2023-04-01T20:25:53.831Z,9.18
2023-04-01T20:28:00.234Z,9.19
2023-04-01T20:30:19.870Z,9.21
2023-04-01T20:32:42.762Z,9.30
2023-04-01T20:35:01.104Z,9.41
2023-04-01T20:37:17.542Z,9.30
2023-04-01T20:39:43.014Z,9.30
2023-04-01T20:41:58.733Z,9.30
2023-04-01T20:44:06.699Z,9.32
2023-04-01T20:46:21.435Z,9.40
2023-04-01T20:48:47.173Z,9.38
2023-04-01T20:50:53.095Z,9.40
2023-04-01T20:53:03.452Z,9.40
2023-04-01T20:55:28.004Z,9.40
2023-04-01T20:57:37.371Z,9.48
2023-04-01T20:59:57.347Z,9.52
2023-04-01T21:02:14.667Z,9.46
2023-04-01T21:04:30.440Z,9.43
2023-04-01T21:06:46.734Z,9.43
2023-04-01T22:48:11.488Z,9.53
2023-04-01T22:50:21.508Z,9.40
2023-04-01T22:52:32.701Z,9.38
2023-04-01T22:54:40.475Z,9.23
2023-04-01T22:56:48.064Z,9.20
2023-04-01T22:58:56.815Z,9.29
2023-04-01T23:01:03.483Z,9.20
2023-04-01T23:03:16.839Z,9.05
2023-04-01T23:05:24.253Z,9.05
2023-04-01T23:08:12.515Z,8.94
2023-04-01T23:10:23.042Z,8.96
2023-04-01T23:12:28.160Z,8.96
2023-04-01T23:14:45.016Z,9.01
2023-04-01T23:30:59.205Z,9.02
2023-04-01T23:33:13.566Z,8.99
2023-04-01T23:35:18.739Z,9.00
2023-04-01T23:37:22.870Z,9.30
2023-04-01T23:39:30.269Z,9.05
2023-04-01T23:41:34.348Z,9.22
2023-04-01T23:43:39.822Z,9.27
2023-04-01T23:45:44.263Z,9.37
2023-04-01T23:47:49.877Z,9.30
2023-04-01T23:49:56.425Z,9.18
2023-04-01T23:52:01.323Z,9.13
2023-04-01T23:54:12.431Z,9.06
2023-04-01T23:56:18.159Z,8.88
2023-04-01T23:58:26.882Z,8.84
